createdAt,value
2018-05-03T00:00:20.878Z,14.96
2018-05-03T00:02:49.089Z,14.97
2018-05-03T00:05:17.847Z,15.04
2018-05-03T00:07:46.017Z,15.09
2018-05-03T00:10:14.221Z,15.08
2018-05-03T00:12:43.038Z,15.07
2018-05-03T00:15:11.589Z,15.06
2018-05-03T00:17:40.198Z,15.04
2018-05-03T00:20:09.405Z,15.06
2018-05-03T00:22:37.647Z,15.01
2018-05-03T00:25:05.888Z,14.90
2018-05-03T00:27:34.512Z,14.83
2018-05-03T00:30:02.716Z,14.76
2018-05-03T00:32:31.073Z,14.85
2018-05-03T00:34:59.752Z,14.70
2018-05-03T00:37:27.963Z,14.67
2018-05-03T00:39:56.689Z,14.63
2018-05-03T00:42:25.230Z,14.59
2018-05-03T00:44:54.097Z,14.60
2018-05-03T00:47:22.437Z,14.59
2018-05-03T00:49:50.863Z,14.46
2018-05-03T00:52:19.503Z,14.42
2018-05-03T00:54:48.563Z,14.42
2018-05-03T00:57:16.772Z,14.36
2018-05-03T00:59:45.375Z,14.39
2018-05-03T01:02:13.652Z,14.34
2018-05-03T01:04:41.805Z,14.26
2018-05-03T01:07:10.556Z,14.30
2018-05-03T01:09:38.819Z,14.18
2018-05-03T01:12:30.529Z,14.18
2018-05-03T01:15:02.428Z,14.07
2018-05-03T01:17:31.130Z,14.13
2018-05-03T01:19:59.357Z,14.00
2018-05-03T01:22:27.584Z,14.06
2018-05-03T01:24:56.293Z,14.03
2018-05-03T01:27:24.622Z,13.92
2018-05-03T01:29:52.813Z,13.91
2018-05-03T01:32:21.372Z,13.93
2018-05-03T01:37:52.178Z,13.92
2018-05-03T01:40:20.583Z,13.84
2018-05-03T01:42:48.806Z,13.82
2018-05-03T01:45:17.004Z,13.82
2018-05-03T01:47:45.816Z,13.84
2018-05-03T01:50:14.052Z,13.82
2018-05-03T01:52:42.253Z,13.79
2018-05-03T01:55:11.000Z,13.81
2018-05-03T01:57:39.199Z,13.78
2018-05-03T02:00:07.393Z,13.77
2018-05-03T02:02:36.119Z,13.70
2018-05-03T02:05:04.296Z,13.68
2018-05-03T02:07:32.684Z,13.69
2018-05-03T02:10:01.368Z,13.71
2018-05-03T02:12:29.555Z,13.65
2018-05-03T02:14:57.953Z,13.65
2018-05-03T02:17:26.473Z,13.65
2018-05-03T02:19:54.711Z,13.65
2018-05-03T02:22:23.059Z,13.65
2018-05-03T02:24:51.736Z,13.63
2018-05-03T02:27:19.947Z,13.70
2018-05-03T02:29:48.175Z,13.70
2018-05-03T02:32:16.791Z,13.62
2018-05-03T02:34:44.998Z,13.63
2018-05-03T02:37:13.318Z,13.60
2018-05-03T02:39:42.100Z,13.47
2018-05-03T02:42:10.424Z,13.43
2018-05-03T02:44:39.219Z,13.38
2018-05-03T02:47:07.832Z,13.44
2018-05-03T02:49:36.057Z,13.30
2018-05-03T02:52:04.360Z,13.32
2018-05-03T02:54:33.015Z,13.20
2018-05-03T02:57:13.078Z,13.27
2018-05-03T02:59:53.107Z,13.26
2018-05-03T03:02:27.576Z,13.22
2018-05-03T03:05:13.119Z,13.09
2018-05-03T03:11:24.492Z,13.04
2018-05-03T03:14:04.493Z,13.10
2018-05-03T03:16:50.844Z,13.04
2018-05-03T03:19:31.299Z,13.04
2018-05-03T03:22:17.125Z,13.05
2018-05-03T03:24:48.267Z,12.98
2018-05-03T03:27:36.742Z,12.90
2018-05-03T03:30:17.209Z,12.80
2018-05-03T03:32:57.239Z,12.80
2018-05-03T03:38:52.588Z,12.75
2018-05-03T03:41:32.595Z,12.77
2018-05-03T03:44:12.574Z,12.75
2018-05-03T03:46:41.287Z,12.69
2018-05-03T03:49:09.899Z,12.61
2018-05-03T03:51:38.088Z,12.57
2018-05-03T03:54:06.277Z,12.56
2018-05-03T03:56:34.972Z,12.49
2018-05-03T03:59:03.216Z,12.44
2018-05-03T04:01:31.395Z,12.50
2018-05-03T04:04:00.094Z,12.55
2018-05-03T04:06:28.310Z,12.45
2018-05-03T04:08:56.539Z,12.34
2018-05-03T04:11:25.376Z,12.27
2018-05-03T04:13:53.609Z,12.23
2018-05-03T04:16:21.789Z,12.19
2018-05-03T04:22:09.741Z,12.11
2018-05-03T04:24:50.439Z,12.07
2018-05-03T04:27:18.772Z,11.94
2018-05-03T04:29:46.966Z,11.98
2018-05-03T04:32:15.618Z,11.99
2018-05-03T04:34:43.830Z,11.93
2018-05-03T04:37:12.265Z,11.92
2018-05-03T04:39:40.821Z,11.81
2018-05-03T04:42:09.037Z,11.80
2018-05-03T04:44:37.415Z,11.77
2018-05-03T04:47:06.073Z,11.74
2018-05-03T04:49:34.267Z,11.76
2018-05-03T04:52:02.966Z,11.75
2018-05-03T04:54:31.615Z,11.71
2018-05-03T04:56:59.808Z,11.74
2018-05-03T04:59:27.967Z,11.78
2018-05-03T05:01:56.406Z,11.75
2018-05-03T05:04:24.644Z,11.73
2018-05-03T05:06:52.985Z,11.70
2018-05-03T05:09:21.595Z,11.69
2018-05-03T05:11:49.801Z,11.66
2018-05-03T05:14:18.198Z,11.73
2018-05-03T05:16:46.763Z,11.69
2018-05-03T05:19:14.957Z,11.68
2018-05-03T05:21:44.076Z,11.66
2018-05-03T05:24:12.736Z,11.68
2018-05-03T05:26:41.468Z,11.71
2018-05-03T05:29:09.688Z,11.73
2018-05-03T05:31:37.876Z,11.68
2018-05-03T05:34:06.598Z,11.69
2018-05-03T05:36:34.804Z,11.75
2018-05-03T05:39:03.106Z,11.82
2018-05-03T05:41:31.650Z,11.90
2018-05-03T05:44:00.781Z,11.82
2018-05-03T05:46:28.969Z,11.77
2018-05-03T05:48:57.980Z,11.96
2018-05-03T05:51:26.877Z,11.94
2018-05-03T05:53:55.089Z,11.99
2018-05-03T05:56:23.333Z,12.03
2018-05-03T05:58:52.026Z,12.08
2018-05-03T06:01:20.229Z,12.08
2018-05-03T06:03:48.442Z,12.06
2018-05-03T06:06:17.200Z,12.11
2018-05-03T06:08:45.412Z,12.20
2018-05-03T06:11:13.631Z,12.24
2018-05-03T06:13:42.195Z,12.23
2018-05-03T06:16:10.381Z,12.21
2018-05-03T06:18:38.580Z,12.20
2018-05-03T06:21:07.342Z,12.34
2018-05-03T06:23:35.542Z,12.39
2018-05-03T06:26:03.813Z,12.33
2018-05-03T06:28:32.445Z,12.42
2018-05-03T06:31:00.651Z,12.47
2018-05-03T06:33:28.875Z,12.56
2018-05-03T06:35:57.587Z,12.52
2018-05-03T06:38:25.792Z,12.64
2018-05-03T06:40:54.076Z,12.69
2018-05-03T06:43:22.817Z,12.67
2018-05-03T06:45:50.990Z,12.72
2018-05-03T06:48:19.211Z,12.77
2018-05-03T06:50:47.929Z,12.82
2018-05-03T06:53:16.132Z,12.85
2018-05-03T06:55:44.377Z,12.93
2018-05-03T06:58:13.078Z,13.00
2018-05-03T07:00:41.280Z,13.02
2018-05-03T07:03:09.498Z,13.10
2018-05-03T07:05:37.731Z,13.07
2018-05-03T07:08:05.933Z,13.06
2018-05-03T07:10:34.355Z,13.06
2018-05-03T07:13:02.588Z,13.13
2018-05-03T07:15:30.797Z,13.27
2018-05-03T07:17:59.236Z,13.34
2018-05-03T07:20:27.497Z,13.30
2018-05-03T07:22:55.694Z,13.26
2018-05-03T07:25:24.348Z,13.28
2018-05-03T07:27:52.551Z,13.29
2018-05-03T07:30:20.900Z,13.30
2018-05-03T07:32:49.524Z,13.31
2018-05-03T07:35:17.808Z,13.27
2018-05-03T07:37:46.022Z,13.43
2018-05-03T07:40:14.712Z,13.48
2018-05-03T07:42:44.118Z,13.46
2018-05-03T07:45:12.296Z,13.40
2018-05-03T07:47:40.508Z,13.46
2018-05-03T07:50:08.751Z,13.52
2018-05-03T07:52:36.944Z,13.55
2018-05-03T07:55:05.341Z,13.55
2018-05-03T07:57:33.535Z,13.62
2018-05-03T08:00:01.734Z,13.74
2018-05-03T08:02:31.180Z,13.83
2018-05-03T08:04:59.630Z,13.89
2018-05-03T08:07:27.856Z,14.00
2018-05-03T08:09:56.055Z,13.98
2018-05-03T08:12:24.704Z,13.95
2018-05-03T08:14:52.908Z,14.02
2018-05-03T08:17:21.248Z,14.07
2018-05-03T08:19:50.046Z,13.97
2018-05-03T08:22:18.295Z,13.93
2018-05-03T08:24:46.483Z,13.93
2018-05-03T08:27:15.074Z,14.01
2018-05-03T08:29:43.277Z,14.04
2018-05-03T08:32:11.492Z,14.06
2018-05-03T08:34:39.735Z,14.04
2018-05-03T08:37:07.936Z,14.05
2018-05-03T08:39:36.311Z,14.01
2018-05-03T08:42:04.593Z,14.11
2018-05-03T08:44:32.793Z,14.16
2018-05-03T08:47:01.208Z,14.14
2018-05-03T08:49:29.422Z,14.14
2018-05-03T08:51:57.817Z,14.22
2018-05-03T08:54:26.246Z,14.36
2018-05-03T08:56:54.462Z,14.39
2018-05-03T08:59:22.881Z,14.53
2018-05-03T09:01:51.626Z,14.64
2018-05-03T09:04:19.780Z,14.76
2018-05-03T09:06:48.140Z,14.68
2018-05-03T09:09:16.650Z,14.57
2018-05-03T09:11:44.852Z,14.55
2018-05-03T09:14:13.287Z,14.77
2018-05-03T09:16:41.891Z,14.91
2018-05-03T09:19:10.119Z,14.94
2018-05-03T09:21:38.449Z,15.01
2018-05-03T09:24:07.087Z,14.96
2018-05-03T09:26:35.287Z,15.01
2018-05-03T09:29:03.787Z,15.02
2018-05-03T09:31:32.319Z,15.09
2018-05-03T09:34:00.536Z,15.05
2018-05-03T09:36:28.852Z,15.07
2018-05-03T09:38:57.463Z,15.03
2018-05-03T09:41:25.678Z,15.12
2018-05-03T09:43:54.006Z,15.28
2018-05-03T09:46:22.699Z,15.38
2018-05-03T09:48:50.917Z,15.29
2018-05-03T09:51:19.165Z,15.32
2018-05-03T09:53:47.865Z,15.31
2018-05-03T09:56:16.072Z,15.31
2018-05-03T09:58:44.359Z,15.20
2018-05-03T10:01:12.989Z,15.26
2018-05-03T10:03:41.217Z,15.20
2018-05-03T10:06:09.605Z,15.35
2018-05-03T10:08:38.097Z,15.41
2018-05-03T10:11:06.284Z,15.43
2018-05-03T10:13:34.658Z,15.40
2018-05-03T10:16:03.358Z,15.42
2018-05-03T10:18:31.546Z,15.53
2018-05-03T10:20:59.800Z,15.53
2018-05-03T10:23:28.456Z,15.67
2018-05-03T10:25:56.665Z,15.86
2018-05-03T10:28:25.020Z,15.85
2018-05-03T10:30:53.708Z,15.88
2018-05-03T10:33:21.959Z,15.82
2018-05-03T10:35:50.240Z,15.70
2018-05-03T10:38:18.755Z,15.78
2018-05-03T10:40:46.950Z,15.72
2018-05-03T10:43:15.367Z,15.62
2018-05-03T10:45:44.006Z,15.59
2018-05-03T10:48:12.238Z,15.56
2018-05-03T10:50:40.548Z,15.69
2018-05-03T10:53:09.130Z,15.95
2018-05-03T10:55:37.330Z,16.12
2018-05-03T10:58:05.732Z,16.11
2018-05-03T11:00:34.397Z,16.20
2018-05-03T11:03:02.641Z,16.17
2018-05-03T11:05:30.994Z,16.15
2018-05-03T11:07:59.512Z,16.25
2018-05-03T11:10:27.712Z,16.53
2018-05-03T11:12:56.038Z,16.69
2018-05-03T11:15:24.787Z,16.76
2018-05-03T11:17:53.010Z,16.82
2018-05-03T11:20:21.307Z,16.81
2018-05-03T11:22:49.968Z,16.85
2018-05-03T11:25:18.186Z,17.05
2018-05-03T11:27:46.503Z,17.20
2018-05-03T11:30:15.108Z,17.31
2018-05-03T11:32:43.286Z,17.34
2018-05-03T11:35:11.755Z,17.25
2018-05-03T11:37:40.265Z,17.36
2018-05-03T11:40:08.517Z,17.44
2018-05-03T11:42:36.893Z,17.51
2018-05-03T11:45:05.409Z,17.55
2018-05-03T11:47:33.676Z,17.62
2018-05-03T11:50:01.889Z,17.87
2018-05-03T11:52:30.628Z,18.04
2018-05-03T11:54:58.807Z,18.47
2018-05-03T11:57:27.178Z,18.82
2018-05-03T11:59:55.757Z,18.87
2018-05-03T12:02:24.013Z,19.02
2018-05-03T12:04:52.238Z,18.93
2018-05-03T12:07:20.931Z,18.52
2018-05-03T12:09:49.126Z,18.20
2018-05-03T12:12:17.440Z,18.16
2018-05-03T12:14:46.130Z,18.43
2018-05-03T12:17:14.349Z,18.95
2018-05-03T12:19:42.555Z,19.47
2018-05-03T12:22:11.373Z,19.57
2018-05-03T12:24:39.593Z,19.51
2018-05-03T12:27:07.800Z,19.33
2018-05-03T12:29:36.534Z,19.79
2018-05-03T12:32:04.712Z,19.92
2018-05-03T12:34:33.166Z,20.13
2018-05-03T12:37:01.653Z,19.87
2018-05-03T12:39:29.818Z,19.66
2018-05-03T12:41:58.015Z,19.46
2018-05-03T12:44:26.795Z,19.55
2018-05-03T12:46:54.995Z,19.34
2018-05-03T12:49:23.237Z,19.24
2018-05-03T12:51:52.053Z,19.59
2018-05-03T12:54:20.226Z,19.53
2018-05-03T12:56:48.407Z,19.89
2018-05-03T12:59:17.011Z,20.00
2018-05-03T13:01:45.178Z,20.30
2018-05-03T13:04:13.713Z,20.51
2018-05-03T13:06:42.341Z,20.27
2018-05-03T13:09:10.536Z,20.83
2018-05-03T13:11:38.739Z,21.26
2018-05-03T13:14:07.361Z,21.55
2018-05-03T13:16:35.596Z,21.88
2018-05-03T13:19:03.821Z,22.33
2018-05-03T13:21:32.100Z,22.34
2018-05-03T13:24:00.305Z,22.28
2018-05-03T13:26:28.784Z,22.00
2018-05-03T13:28:57.001Z,22.00
2018-05-03T13:31:25.184Z,22.52
2018-05-03T13:33:53.803Z,22.47
2018-05-03T13:36:22.004Z,22.07
2018-05-03T13:38:50.204Z,21.96
2018-05-03T13:41:18.571Z,21.51
2018-05-03T13:43:46.803Z,21.23
2018-05-03T13:46:15.183Z,20.68
2018-05-03T13:48:43.779Z,20.29
2018-05-03T13:51:11.992Z,20.07
2018-05-03T13:53:40.375Z,19.96
2018-05-03T13:56:08.587Z,20.03
2018-05-03T13:58:36.782Z,20.13
2018-05-03T14:01:05.006Z,20.35
2018-05-03T14:03:33.745Z,20.23
2018-05-03T14:06:01.958Z,20.26
2018-05-03T14:08:30.167Z,20.62
2018-05-03T14:10:58.827Z,20.95
2018-05-03T14:13:27.025Z,20.99
2018-05-03T14:15:55.414Z,20.93
2018-05-03T14:18:24.093Z,20.81
2018-05-03T14:20:52.353Z,20.53
2018-05-03T14:23:20.536Z,20.77
2018-05-03T14:25:49.257Z,20.78
2018-05-03T14:28:17.428Z,21.24
2018-05-03T14:30:45.708Z,21.55
2018-05-03T14:33:14.461Z,21.40
2018-05-03T14:35:42.647Z,21.26
2018-05-03T14:38:10.924Z,21.33
2018-05-03T14:40:39.580Z,21.03
2018-05-03T14:43:07.776Z,21.28
2018-05-03T14:45:36.033Z,20.97
2018-05-03T14:48:04.271Z,21.00
2018-05-03T14:53:07.007Z,20.69
2018-05-03T14:55:35.488Z,20.62
2018-05-03T14:58:03.698Z,20.45
2018-05-03T15:00:32.158Z,20.96
2018-05-03T15:03:00.787Z,21.24
2018-05-03T15:05:29.005Z,21.08
2018-05-03T15:07:57.346Z,21.12
2018-05-03T15:10:26.026Z,21.24
2018-05-03T15:12:54.509Z,20.92
2018-05-03T15:15:22.709Z,20.80
2018-05-03T15:17:51.044Z,20.36
2018-05-03T15:20:19.269Z,20.16
2018-05-03T15:22:47.671Z,20.17
2018-05-03T15:25:16.308Z,19.95
2018-05-03T15:27:44.518Z,19.76
2018-05-03T15:30:13.008Z,19.82
2018-05-03T15:32:41.522Z,19.68
2018-05-03T15:35:09.774Z,19.49
2018-05-03T15:37:38.207Z,19.48
2018-05-03T15:40:06.509Z,19.35
2018-05-03T15:42:34.690Z,19.34
2018-05-03T15:45:02.911Z,19.37
2018-05-03T15:47:31.754Z,19.11
2018-05-03T15:49:59.987Z,18.92
2018-05-03T15:52:28.202Z,18.90
2018-05-03T15:54:56.894Z,18.87
2018-05-03T15:57:25.079Z,18.88
2018-05-03T15:59:53.294Z,18.81
2018-05-03T16:02:22.102Z,18.84
2018-05-03T16:04:50.307Z,18.87
2018-05-03T16:07:18.492Z,18.89
2018-05-03T16:09:47.206Z,18.87
2018-05-03T16:12:15.382Z,18.79
2018-05-03T16:14:43.636Z,18.81
2018-05-03T16:17:12.434Z,18.83
2018-05-03T16:19:40.619Z,18.82
2018-05-03T16:22:08.806Z,18.82
2018-05-03T16:24:37.499Z,18.63
2018-05-03T16:27:05.695Z,18.64
2018-05-03T16:29:33.891Z,18.55
2018-05-03T16:32:02.510Z,18.55
2018-05-03T16:34:30.765Z,18.50
2018-05-03T16:36:58.931Z,18.53
2018-05-03T16:39:27.562Z,18.56
2018-05-03T16:41:55.741Z,18.61
2018-05-03T16:44:23.964Z,18.62
2018-05-03T16:46:52.643Z,18.57
2018-05-03T16:49:20.824Z,18.66
2018-05-03T16:51:49.024Z,18.73
2018-05-03T16:54:17.582Z,18.76
2018-05-03T16:56:45.755Z,18.81
2018-05-03T16:59:14.305Z,18.83
2018-05-03T17:01:42.458Z,18.86
2018-05-03T17:04:10.690Z,18.83
2018-05-03T17:06:39.407Z,18.79
2018-05-03T17:09:07.657Z,18.80
2018-05-03T17:11:35.853Z,18.71
2018-05-03T17:14:04.421Z,18.67
2018-05-03T17:16:32.657Z,18.60
2018-05-03T17:19:01.150Z,18.56
2018-05-03T17:21:29.628Z,18.51
2018-05-03T17:23:57.848Z,18.45
2018-05-03T17:26:26.125Z,18.46
2018-05-03T17:28:54.702Z,18.40
2018-05-03T17:31:22.932Z,18.31
2018-05-03T17:33:51.509Z,18.27
2018-05-03T17:36:20.046Z,18.23
2018-05-03T17:38:48.242Z,18.13
2018-05-03T17:41:16.648Z,18.07
2018-05-03T17:43:45.262Z,18.01
2018-05-03T17:46:13.517Z,17.88
2018-05-03T17:48:41.707Z,17.84
2018-05-03T17:51:10.440Z,17.82
2018-05-03T17:53:38.600Z,17.71
2018-05-03T17:56:06.832Z,17.68
2018-05-03T17:58:35.453Z,17.60
2018-05-03T18:01:03.649Z,17.57
2018-05-03T18:03:31.964Z,17.49
2018-05-03T18:06:00.516Z,17.48
2018-05-03T18:08:28.747Z,17.45
2018-05-03T18:10:57.172Z,17.46
2018-05-03T18:13:25.795Z,17.33
2018-05-03T18:15:53.990Z,17.30
2018-05-03T18:18:22.442Z,17.22
2018-05-03T18:20:51.054Z,17.22
2018-05-03T18:23:19.240Z,17.12
2018-05-03T18:25:47.538Z,17.05
2018-05-03T18:28:15.915Z,17.01
2018-05-03T18:30:44.149Z,16.99
2018-05-03T18:33:12.335Z,17.01
2018-05-03T18:35:41.135Z,16.99
2018-05-03T18:38:09.394Z,16.98
2018-05-03T18:40:37.515Z,16.89
2018-05-03T18:43:05.774Z,16.90
2018-05-03T18:45:33.945Z,16.83
2018-05-03T18:48:02.832Z,16.82
2018-05-03T18:50:31.011Z,16.79
2018-05-03T18:52:59.381Z,16.72
2018-05-03T18:55:28.109Z,16.82
2018-05-03T18:57:56.325Z,16.68
2018-05-03T19:00:25.566Z,16.75
2018-05-03T19:02:54.401Z,16.66
2018-05-03T19:05:23.186Z,16.58
2018-05-03T19:07:51.389Z,16.69
2018-05-03T19:10:19.636Z,16.57
2018-05-03T19:12:48.343Z,16.55
2018-05-03T19:15:16.564Z,16.51
2018-05-03T19:17:44.790Z,16.56
2018-05-03T19:20:13.561Z,16.49
2018-05-03T19:22:41.736Z,16.41
2018-05-03T19:25:09.973Z,16.34
2018-05-03T19:27:38.722Z,16.34
2018-05-03T19:30:06.917Z,16.23
2018-05-03T19:32:35.137Z,16.15
2018-05-03T19:35:03.802Z,16.11
2018-05-03T19:37:31.978Z,16.04
2018-05-03T19:40:00.341Z,16.00
2018-05-03T19:42:29.057Z,15.98
2018-05-03T19:44:57.264Z,15.99
2018-05-03T19:47:25.486Z,16.02
2018-05-03T19:49:54.329Z,15.92
2018-05-03T19:52:22.532Z,15.87
2018-05-03T19:54:51.412Z,15.80
2018-05-03T19:57:20.217Z,15.70
2018-05-03T19:59:48.720Z,15.66
2018-05-03T20:02:16.937Z,15.59
2018-05-03T20:04:45.546Z,15.53
2018-05-03T20:07:13.782Z,15.47
2018-05-03T20:09:41.972Z,15.44
2018-05-03T20:12:10.791Z,15.38
2018-05-03T20:14:39.001Z,15.35
2018-05-03T20:17:07.180Z,15.36
2018-05-03T20:19:35.948Z,15.33
2018-05-03T20:22:04.175Z,15.29
2018-05-03T20:24:32.352Z,15.35
2018-05-03T20:27:00.966Z,15.19
2018-05-03T20:29:29.225Z,15.18
2018-05-03T20:31:57.500Z,15.09
2018-05-03T20:34:26.114Z,15.05
2018-05-03T20:36:54.341Z,15.06
2018-05-03T20:39:22.548Z,14.99
2018-05-03T20:41:51.903Z,14.92
2018-05-03T20:44:20.280Z,14.86
2018-05-03T20:46:48.472Z,14.82
2018-05-03T20:49:16.709Z,14.80
2018-05-03T20:51:45.529Z,14.75
2018-05-03T20:54:13.714Z,14.66
2018-05-03T20:56:41.889Z,14.64
2018-05-03T20:59:10.661Z,14.60
2018-05-03T21:01:38.865Z,14.61
2018-05-03T21:04:07.070Z,14.53
2018-05-03T21:06:35.761Z,14.51
2018-05-03T21:09:03.952Z,14.42
2018-05-03T21:11:32.168Z,14.36
2018-05-03T21:14:00.957Z,14.33
2018-05-03T21:16:29.150Z,14.28
2018-05-03T21:18:57.342Z,14.25
2018-05-03T21:21:26.034Z,14.18
2018-05-03T21:23:54.234Z,14.17
2018-05-03T21:26:22.455Z,14.16
2018-05-03T21:28:51.283Z,14.11
2018-05-03T21:31:19.467Z,14.05
2018-05-03T21:33:47.657Z,14.02
2018-05-03T21:36:16.337Z,13.98
2018-05-03T21:38:44.508Z,13.97
2018-05-03T21:41:12.772Z,13.94
2018-05-03T21:43:41.471Z,13.89
2018-05-03T21:46:09.650Z,13.87
2018-05-03T21:48:37.922Z,13.84
2018-05-03T21:51:06.677Z,13.84
2018-05-03T21:53:34.877Z,13.79
2018-05-03T21:56:03.128Z,13.81
2018-05-03T21:58:31.943Z,13.74
2018-05-03T22:01:00.166Z,13.64
2018-05-03T22:03:45.837Z,13.61
2018-05-03T22:06:14.077Z,13.59
2018-05-03T22:08:42.718Z,13.59
2018-05-03T22:11:10.895Z,13.53
2018-05-03T22:13:39.326Z,13.49
2018-05-03T22:16:07.964Z,13.47
2018-05-03T22:18:36.185Z,13.43
2018-05-03T22:21:04.391Z,13.42
2018-05-03T22:23:33.194Z,13.36
2018-05-03T22:26:01.369Z,13.36
2018-05-03T22:28:29.574Z,13.28
2018-05-03T22:30:58.184Z,13.22
2018-05-03T22:33:26.392Z,13.25
2018-05-03T22:35:54.770Z,13.20
2018-05-03T22:38:23.470Z,13.20
2018-05-03T22:40:51.715Z,13.21
2018-05-03T22:43:19.978Z,13.09
2018-05-03T22:45:48.489Z,13.07
2018-05-03T22:48:16.702Z,13.06
2018-05-03T22:50:45.057Z,12.97
2018-05-03T22:53:13.635Z,12.96
2018-05-03T22:55:41.800Z,12.94
2018-05-03T22:58:10.143Z,12.87
2018-05-03T23:00:38.738Z,12.85
2018-05-03T23:03:06.916Z,12.83
2018-05-03T23:05:35.284Z,12.78
2018-05-03T23:08:03.954Z,12.74
2018-05-03T23:10:32.139Z,12.74
2018-05-03T23:13:00.442Z,12.75
2018-05-03T23:15:29.081Z,12.74
2018-05-03T23:17:57.274Z,12.69
2018-05-03T23:20:25.576Z,12.67
2018-05-03T23:22:54.302Z,12.66
2018-05-03T23:25:22.476Z,12.68
2018-05-03T23:27:50.892Z,12.66
2018-05-03T23:30:19.429Z,12.62
2018-05-03T23:32:47.613Z,12.59
2018-05-03T23:35:16.029Z,12.58
2018-05-03T23:37:44.731Z,12.58
2018-05-03T23:40:12.942Z,12.52
2018-05-03T23:42:41.159Z,12.53
2018-05-03T23:45:09.833Z,12.52
2018-05-03T23:47:38.022Z,12.59
2018-05-03T23:50:06.253Z,12.53
2018-05-03T23:52:34.963Z,12.52
2018-05-03T23:55:03.148Z,12.46
2018-05-03T23:57:31.395Z,12.44
2018-05-03T23:59:59.942Z,12.44
